sensor_id;sensor_type;location;lat;lon;timestamp;pressure;altitude;pressure_sealevel;temperature;humidity
18504;BME280;9381;54.244;10.074;2022-09-09T00:03:19;100282.41;;;16.18;100.00
18504;BME280;9381;54.244;10.074;2022-09-09T00:08:32;100287.34;;;16.21;100.00
18504;BME280;9381;54.244;10.074;2022-09-09T00:14:03;100283.53;;;16.22;100.00
18504;BME280;9381;54.244;10.074;2022-09-09T00:24:44;100284.69;;;16.31;100.00
18504;BME280;9381;54.244;10.074;2022-09-09T00:29:49;100283.28;;;16.28;100.00
18504;BME280;9381;54.244;10.074;2022-09-09T00:34:55;100277.53;;;16.25;100.00
18504;BME280;9381;54.244;10.074;2022-09-09T00:39:59;100284.03;;;16.19;100.00
18504;BME280;9381;54.244;10.074;2022-09-09T00:55:49;100284.34;;;16.22;100.00
18504;BME280;9381;54.244;10.074;2022-09-09T01:01:10;100264.69;;;16.20;100.00
18504;BME280;9381;54.244;10.074;2022-09-09T01:06:29;100266.53;;;16.10;100.00
18504;BME280;9381;54.244;10.074;2022-09-09T01:16:50;100267.13;;;16.17;100.00
18504;BME280;9381;54.244;10.074;2022-09-09T01:22:09;100262.16;;;16.09;100.00
18504;BME280;9381;54.244;10.074;2022-09-09T01:27:13;100252.09;;;16.14;100.00
18504;BME280;9381;54.244;10.074;2022-09-09T01:32:44;100258.13;;;16.16;100.00
18504;BME280;9381;54.244;10.074;2022-09-09T01:37:45;100256.31;;;16.32;100.00
18504;BME280;9381;54.244;10.074;2022-09-09T01:42:46;100265.84;;;16.29;100.00
18504;BME280;9381;54.244;10.074;2022-09-09T01:47:46;100259.66;;;16.44;100.00
18504;BME280;9381;54.244;10.074;2022-09-09T01:52:52;100265.38;;;16.42;100.00
18504;BME280;9381;54.244;10.074;2022-09-09T01:57:58;100262.44;;;16.49;100.00
18504;BME280;9381;54.244;10.074;2022-09-09T02:03:09;100272.56;;;16.58;100.00
18504;BME280;9381;54.244;10.074;2022-09-09T02:08:21;100273.69;;;16.62;100.00
18504;BME280;9381;54.244;10.074;2022-09-09T02:13:24;100269.56;;;16.65;100.00
18504;BME280;9381;54.244;10.074;2022-09-09T02:18:51;100274.50;;;16.63;100.00
18504;BME280;9381;54.244;10.074;2022-09-09T02:23:54;100278.78;;;16.44;100.00
18504;BME280;9381;54.244;10.074;2022-09-09T02:28:58;100279.72;;;16.23;100.00
18504;BME280;9381;54.244;10.074;2022-09-09T02:34:00;100280.91;;;16.37;100.00
18504;BME280;9381;54.244;10.074;2022-09-09T02:39:02;100280.94;;;16.47;100.00
18504;BME280;9381;54.244;10.074;2022-09-09T02:44:12;100276.13;;;16.64;100.00
18504;BME280;9381;54.244;10.074;2022-09-09T02:49:20;100284.34;;;16.74;100.00
18504;BME280;9381;54.244;10.074;2022-09-09T02:54:29;100273.44;;;16.74;100.00
18504;BME280;9381;54.244;10.074;2022-09-09T02:59:33;100272.91;;;16.77;100.00
18504;BME280;9381;54.244;10.074;2022-09-09T03:04:34;100271.03;;;16.82;100.00
18504;BME280;9381;54.244;10.074;2022-09-09T03:09:34;100282.09;;;16.56;100.00
18504;BME280;9381;54.244;10.074;2022-09-09T03:14:34;100283.25;;;16.75;100.00
18504;BME280;9381;54.244;10.074;2022-09-09T03:19:35;100292.59;;;16.84;100.00
18504;BME280;9381;54.244;10.074;2022-09-09T03:24:36;100290.13;;;16.82;100.00
18504;BME280;9381;54.244;10.074;2022-09-09T03:29:36;100287.13;;;16.84;100.00
18504;BME280;9381;54.244;10.074;2022-09-09T03:34:37;100287.66;;;16.81;100.00
18504;BME280;9381;54.244;10.074;2022-09-09T03:39:40;100284.38;;;16.79;100.00
18504;BME280;9381;54.244;10.074;2022-09-09T03:44:40;100290.66;;;16.74;100.00
18504;BME280;9381;54.244;10.074;2022-09-09T03:49:41;100289.28;;;16.72;100.00
18504;BME280;9381;54.244;10.074;2022-09-09T03:54:42;100288.22;;;16.78;100.00
18504;BME280;9381;54.244;10.074;2022-09-09T03:59:43;100284.38;;;16.79;100.00
18504;BME280;9381;54.244;10.074;2022-09-09T04:04:43;100275.09;;;16.80;100.00
18504;BME280;9381;54.244;10.074;2022-09-09T04:09:44;100286.03;;;16.80;100.00
18504;BME280;9381;54.244;10.074;2022-09-09T04:14:44;100277.25;;;16.73;100.00
18504;BME280;9381;54.244;10.074;2022-09-09T04:19:44;100284.06;;;16.70;100.00
18504;BME280;9381;54.244;10.074;2022-09-09T04:24:44;100283.81;;;16.72;100.00
18504;BME280;9381;54.244;10.074;2022-09-09T04:29:45;100281.59;;;16.64;100.00
18504;BME280;9381;54.244;10.074;2022-09-09T04:34:45;100292.25;;;16.70;100.00
18504;BME280;9381;54.244;10.074;2022-09-09T04:39:47;100296.91;;;16.75;100.00
18504;BME280;9381;54.244;10.074;2022-09-09T04:44:48;100301.31;;;16.76;100.00
18504;BME280;9381;54.244;10.074;2022-09-09T04:49:48;100295.31;;;16.79;100.00
18504;BME280;9381;54.244;10.074;2022-09-09T04:54:48;100303.53;;;16.89;100.00
18504;BME280;9381;54.244;10.074;2022-09-09T04:59:48;100315.53;;;16.78;100.00
18504;BME280;9381;54.244;10.074;2022-09-09T05:04:49;100318.25;;;16.83;100.00
18504;BME280;9381;54.244;10.074;2022-09-09T05:09:49;100319.38;;;16.87;100.00
18504;BME280;9381;54.244;10.074;2022-09-09T05:14:50;100320.47;;;16.91;100.00
18504;BME280;9381;54.244;10.074;2022-09-09T05:19:50;100331.13;;;16.87;100.00
18504;BME280;9381;54.244;10.074;2022-09-09T05:24:51;100321.03;;;16.88;100.00
18504;BME280;9381;54.244;10.074;2022-09-09T05:29:51;100325.97;;;16.96;100.00
18504;BME280;9381;54.244;10.074;2022-09-09T05:34:51;100328.72;;;16.96;100.00
18504;BME280;9381;54.244;10.074;2022-09-09T05:39:52;100334.69;;;16.93;100.00
18504;BME280;9381;54.244;10.074;2022-09-09T05:44:53;100334.19;;;16.96;100.00
18504;BME280;9381;54.244;10.074;2022-09-09T05:49:55;100348.63;;;16.91;100.00
18504;BME280;9381;54.244;10.074;2022-09-09T05:54:55;100335.22;;;16.90;100.00
18504;BME280;9381;54.244;10.074;2022-09-09T05:59:56;100342.94;;;17.03;100.00
18504;BME280;9381;54.244;10.074;2022-09-09T06:04:57;100355.53;;;17.04;100.00
18504;BME280;9381;54.244;10.074;2022-09-09T06:09:57;100352.75;;;16.94;100.00
18504;BME280;9381;54.244;10.074;2022-09-09T06:14:59;100359.31;;;16.98;100.00
18504;BME280;9381;54.244;10.074;2022-09-09T06:19:59;100362.59;;;17.00;100.00
18504;BME280;9381;54.244;10.074;2022-09-09T06:25:00;100362.13;;;17.13;100.00
18504;BME280;9381;54.244;10.074;2022-09-09T06:30:01;100363.75;;;17.14;100.00
18504;BME280;9381;54.244;10.074;2022-09-09T06:35:03;100375.78;;;17.18;100.00
18504;BME280;9381;54.244;10.074;2022-09-09T06:40:03;100378.81;;;17.16;100.00
18504;BME280;9381;54.244;10.074;2022-09-09T06:45:04;100380.19;;;17.29;100.00
18504;BME280;9381;54.244;10.074;2022-09-09T06:50:05;100384.56;;;17.30;100.00
18504;BME280;9381;54.244;10.074;2022-09-09T06:55:08;100390.63;;;17.37;100.00
18504;BME280;9381;54.244;10.074;2022-09-09T07:00:09;100388.22;;;17.50;100.00
18504;BME280;9381;54.244;10.074;2022-09-09T07:05:09;100377.59;;;17.59;100.00
18504;BME280;9381;54.244;10.074;2022-09-09T07:10:10;100379.75;;;17.57;100.00
18504;BME280;9381;54.244;10.074;2022-09-09T07:15:11;100374.84;;;17.59;100.00
18504;BME280;9381;54.244;10.074;2022-09-09T07:20:11;100376.50;;;17.60;100.00
18504;BME280;9381;54.244;10.074;2022-09-09T07:25:12;100378.94;;;17.61;100.00
18504;BME280;9381;54.244;10.074;2022-09-09T07:30:14;100376.50;;;17.70;100.00
18504;BME280;9381;54.244;10.074;2022-09-09T07:35:14;100382.53;;;17.82;100.00
18504;BME280;9381;54.244;10.074;2022-09-09T07:40:15;100376.53;;;17.94;100.00
18504;BME280;9381;54.244;10.074;2022-09-09T07:45:15;100387.75;;;18.08;100.00
18504;BME280;9381;54.244;10.074;2022-09-09T07:50:16;100383.94;;;18.29;100.00
18504;BME280;9381;54.244;10.074;2022-09-09T07:55:16;100379.28;;;18.39;100.00
18504;BME280;9381;54.244;10.074;2022-09-09T08:00:17;100372.38;;;18.62;100.00
18504;BME280;9381;54.244;10.074;2022-09-09T08:05:18;100374.22;;;18.96;100.00
18504;BME280;9381;54.244;10.074;2022-09-09T08:10:19;100363.22;;;19.06;100.00
18504;BME280;9381;54.244;10.074;2022-09-09T08:15:19;100370.06;;;19.04;100.00
18504;BME280;9381;54.244;10.074;2022-09-09T08:20:19;100363.09;;;19.36;100.00
18504;BME280;9381;54.244;10.074;2022-09-09T08:25:19;100379.34;;;19.71;100.00
18504;BME280;9381;54.244;10.074;2022-09-09T08:30:20;100375.94;;;19.84;100.00
18504;BME280;9381;54.244;10.074;2022-09-09T08:35:20;100387.50;;;19.81;100.00
18504;BME280;9381;54.244;10.074;2022-09-09T08:40:27;100396.00;;;19.80;100.00
18504;BME280;9381;54.244;10.074;2022-09-09T08:45:37;100401.75;;;19.83;100.00
18504;BME280;9381;54.244;10.074;2022-09-09T08:50:44;100400.13;;;19.82;100.00
18504;BME280;9381;54.244;10.074;2022-09-09T08:55:50;100400.50;;;20.09;100.00
18504;BME280;9381;54.244;10.074;2022-09-09T09:11:38;100428.00;;;20.38;95.16
18504;BME280;9381;54.244;10.074;2022-09-09T09:16:48;100423.59;;;20.70;95.43
18504;BME280;9381;54.244;10.074;2022-09-09T09:22:30;100420.50;;;20.77;95.30
18504;BME280;9381;54.244;10.074;2022-09-09T09:27:43;100427.84;;;20.86;95.59
18504;BME280;9381;54.244;10.074;2022-09-09T09:33:01;100426.16;;;20.90;92.48
18504;BME280;9381;54.244;10.074;2022-09-09T09:38:18;100415.66;;;21.39;95.19
18504;BME280;9381;54.244;10.074;2022-09-09T09:43:37;100415.81;;;21.71;90.31
18504;BME280;9381;54.244;10.074;2022-09-09T09:48:37;100417.22;;;22.05;87.80
18504;BME280;9381;54.244;10.074;2022-09-09T09:53:38;100420.41;;;22.12;85.35
18504;BME280;9381;54.244;10.074;2022-09-09T10:03:51;100419.22;;;22.00;87.82
18504;BME280;9381;54.244;10.074;2022-09-09T10:08:52;100424.34;;;22.89;82.63
18504;BME280;9381;54.244;10.074;2022-09-09T10:14:01;100417.13;;;23.96;78.96
18504;BME280;9381;54.244;10.074;2022-09-09T10:19:09;100414.69;;;25.51;79.11
18504;BME280;9381;54.244;10.074;2022-09-09T10:24:50;100410.34;;;26.35;68.33
18504;BME280;9381;54.244;10.074;2022-09-09T10:35:20;100402.16;;;26.64;73.39
18504;BME280;9381;54.244;10.074;2022-09-09T10:45:49;100405.94;;;27.14;61.78
18504;BME280;9381;54.244;10.074;2022-09-09T10:51:00;100407.03;;;26.50;66.63
18504;BME280;9381;54.244;10.074;2022-09-09T10:56:09;100414.56;;;26.41;73.04
18504;BME280;9381;54.244;10.074;2022-09-09T11:01:33;100411.13;;;27.53;62.83
18504;BME280;9381;54.244;10.074;2022-09-09T11:06:40;100399.72;;;27.46;63.55
18504;BME280;9381;54.244;10.074;2022-09-09T11:11:53;100409.09;;;27.91;57.27
18504;BME280;9381;54.244;10.074;2022-09-09T11:17:23;100421.94;;;26.20;66.38
18504;BME280;9381;54.244;10.074;2022-09-09T11:27:40;100432.69;;;25.96;61.59
18504;BME280;9381;54.244;10.074;2022-09-09T11:38:26;100423.56;;;26.04;61.53
18504;BME280;9381;54.244;10.074;2022-09-09T11:43:30;100429.78;;;26.52;59.17
18504;BME280;9381;54.244;10.074;2022-09-09T11:48:35;100422.28;;;27.45;61.76
18504;BME280;9381;54.244;10.074;2022-09-09T11:53:54;100423.81;;;28.65;58.69
18504;BME280;9381;54.244;10.074;2022-09-09T11:58:57;100433.06;;;28.57;56.68
18504;BME280;9381;54.244;10.074;2022-09-09T12:04:27;100440.63;;;26.91;56.21
18504;BME280;9381;54.244;10.074;2022-09-09T12:15:16;100444.69;;;24.88;64.08
18504;BME280;9381;54.244;10.074;2022-09-09T12:20:26;100448.47;;;25.87;64.38
18504;BME280;9381;54.244;10.074;2022-09-09T12:25:36;100436.28;;;27.19;56.95
18504;BME280;9381;54.244;10.074;2022-09-09T12:36:03;100441.47;;;27.29;63.14
18504;BME280;9381;54.244;10.074;2022-09-09T12:41:05;100436.88;;;27.33;57.19
18504;BME280;9381;54.244;10.074;2022-09-09T12:46:11;100444.03;;;26.97;57.05
18504;BME280;9381;54.244;10.074;2022-09-09T12:51:20;100441.56;;;26.95;57.97
18504;BME280;9381;54.244;10.074;2022-09-09T12:56:24;100429.91;;;27.19;56.46
18504;BME280;9381;54.244;10.074;2022-09-09T13:01:32;100421.25;;;27.49;58.30
18504;BME280;9381;54.244;10.074;2022-09-09T13:06:33;100414.44;;;27.67;58.05
18504;BME280;9381;54.244;10.074;2022-09-09T13:11:38;100413.41;;;27.22;56.88
18504;BME280;9381;54.244;10.074;2022-09-09T13:16:40;100417.19;;;26.46;56.83
18504;BME280;9381;54.244;10.074;2022-09-09T13:21:40;100433.50;;;25.88;62.66
18504;BME280;9381;54.244;10.074;2022-09-09T13:26:40;100420.38;;;25.16;66.52
18504;BME280;9381;54.244;10.074;2022-09-09T13:31:42;100428.69;;;24.85;66.73
18504;BME280;9381;54.244;10.074;2022-09-09T13:36:48;100421.59;;;24.93;68.17
18504;BME280;9381;54.244;10.074;2022-09-09T13:41:48;100416.00;;;24.84;65.07
18504;BME280;9381;54.244;10.074;2022-09-09T13:47:00;100407.97;;;25.05;65.73
18504;BME280;9381;54.244;10.074;2022-09-09T13:52:14;100397.56;;;25.02;64.21
18504;BME280;9381;54.244;10.074;2022-09-09T13:57:19;100405.09;;;24.79;66.18
18504;BME280;9381;54.244;10.074;2022-09-09T14:02:20;100414.03;;;25.15;64.48
18504;BME280;9381;54.244;10.074;2022-09-09T14:07:23;100394.91;;;25.27;63.12
18504;BME280;9381;54.244;10.074;2022-09-09T14:12:23;100402.28;;;25.49;63.49
18504;BME280;9381;54.244;10.074;2022-09-09T14:17:24;100404.41;;;25.60;63.20
18504;BME280;9381;54.244;10.074;2022-09-09T14:22:25;100409.59;;;25.36;64.57
18504;BME280;9381;54.244;10.074;2022-09-09T14:27:25;100410.06;;;24.69;66.49
18504;BME280;9381;54.244;10.074;2022-09-09T14:32:26;100411.19;;;24.02;70.11
18504;BME280;9381;54.244;10.074;2022-09-09T14:37:27;100409.25;;;23.40;72.76
18504;BME280;9381;54.244;10.074;2022-09-09T14:42:28;100403.81;;;22.95;74.93
18504;BME280;9381;54.244;10.074;2022-09-09T14:47:30;100399.91;;;22.69;77.37
18504;BME280;9381;54.244;10.074;2022-09-09T14:52:30;100402.50;;;22.47;78.28
18504;BME280;9381;54.244;10.074;2022-09-09T14:57:31;100416.81;;;22.12;81.52
18504;BME280;9381;54.244;10.074;2022-09-09T15:02:31;100423.84;;;21.86;88.61
18504;BME280;9381;54.244;10.074;2022-09-09T15:07:31;100425.75;;;21.67;92.00
18504;BME280;9381;54.244;10.074;2022-09-09T15:12:32;100445.63;;;20.94;97.39
18504;BME280;9381;54.244;10.074;2022-09-09T15:17:33;100456.75;;;20.50;95.21
18504;BME280;9381;54.244;10.074;2022-09-09T15:22:33;100478.00;;;19.96;98.79
18504;BME280;9381;54.244;10.074;2022-09-09T15:27:34;100499.28;;;20.19;95.89
18504;BME280;9381;54.244;10.074;2022-09-09T15:32:34;100506.66;;;20.24;96.75
18504;BME280;9381;54.244;10.074;2022-09-09T15:37:35;100505.34;;;20.16;97.45
18504;BME280;9381;54.244;10.074;2022-09-09T15:42:35;100488.38;;;20.09;96.57
18504;BME280;9381;54.244;10.074;2022-09-09T15:47:36;100480.75;;;19.96;94.37
18504;BME280;9381;54.244;10.074;2022-09-09T15:52:36;100489.09;;;19.71;94.06
18504;BME280;9381;54.244;10.074;2022-09-09T15:57:37;100475.69;;;19.65;96.95
18504;BME280;9381;54.244;10.074;2022-09-09T16:02:37;100464.47;;;19.61;95.66
18504;BME280;9381;54.244;10.074;2022-09-09T16:07:37;100466.16;;;19.52;93.36
18504;BME280;9381;54.244;10.074;2022-09-09T16:12:38;100465.31;;;19.52;93.67
18504;BME280;9381;54.244;10.074;2022-09-09T16:17:39;100460.13;;;19.45;93.95
18504;BME280;9381;54.244;10.074;2022-09-09T16:22:39;100467.25;;;19.46;96.40
18504;BME280;9381;54.244;10.074;2022-09-09T16:27:40;100464.50;;;19.51;98.00
18504;BME280;9381;54.244;10.074;2022-09-09T16:32:40;100465.34;;;19.42;96.71
18504;BME280;9381;54.244;10.074;2022-09-09T16:37:41;100464.00;;;19.39;98.46
18504;BME280;9381;54.244;10.074;2022-09-09T16:42:43;100463.50;;;19.27;98.98
18504;BME280;9381;54.244;10.074;2022-09-09T16:47:43;100472.25;;;19.29;99.07
18504;BME280;9381;54.244;10.074;2022-09-09T16:52:44;100472.03;;;19.21;98.76
18504;BME280;9381;54.244;10.074;2022-09-09T16:57:45;100464.59;;;19.11;99.73
18504;BME280;9381;54.244;10.074;2022-09-09T17:02:45;100472.84;;;19.01;100.00
18504;BME280;9381;54.244;10.074;2022-09-09T17:07:45;100472.63;;;18.93;100.00
18504;BME280;9381;54.244;10.074;2022-09-09T17:12:46;100485.50;;;18.82;100.00
18504;BME280;9381;54.244;10.074;2022-09-09T17:17:46;100484.13;;;18.80;100.00
18504;BME280;9381;54.244;10.074;2022-09-09T17:22:49;100487.69;;;18.80;100.00
18504;BME280;9381;54.244;10.074;2022-09-09T17:27:49;100487.69;;;18.75;100.00
18504;BME280;9381;54.244;10.074;2022-09-09T17:32:51;100485.53;;;18.77;100.00
18504;BME280;9381;54.244;10.074;2022-09-09T17:37:52;100487.44;;;18.77;100.00
18504;BME280;9381;54.244;10.074;2022-09-09T17:42:53;100493.44;;;18.79;100.00
18504;BME280;9381;54.244;10.074;2022-09-09T17:47:54;100488.25;;;18.82;100.00
18504;BME280;9381;54.244;10.074;2022-09-09T17:52:54;100498.66;;;18.85;100.00
18504;BME280;9381;54.244;10.074;2022-09-09T17:57:56;100501.94;;;18.87;100.00
18504;BME280;9381;54.244;10.074;2022-09-09T18:02:56;100506.88;;;18.80;100.00
18504;BME280;9381;54.244;10.074;2022-09-09T18:07:57;100507.16;;;18.74;100.00
18504;BME280;9381;54.244;10.074;2022-09-09T18:12:57;100520.56;;;18.65;100.00
18504;BME280;9381;54.244;10.074;2022-09-09T18:18:01;100518.94;;;18.49;100.00
18504;BME280;9381;54.244;10.074;2022-09-09T18:23:02;100532.88;;;18.43;100.00
18504;BME280;9381;54.244;10.074;2022-09-09T18:28:02;100528.25;;;18.33;100.00
18504;BME280;9381;54.244;10.074;2022-09-09T18:33:03;100534.75;;;18.17;100.00
18504;BME280;9381;54.244;10.074;2022-09-09T18:38:03;100537.47;;;18.07;100.00
18504;BME280;9381;54.244;10.074;2022-09-09T18:43:03;100544.59;;;18.03;100.00
18504;BME280;9381;54.244;10.074;2022-09-09T18:48:04;100539.09;;;18.03;100.00
18504;BME280;9381;54.244;10.074;2022-09-09T18:53:05;100546.16;;;17.85;100.00
18504;BME280;9381;54.244;10.074;2022-09-09T18:58:05;100558.47;;;17.87;100.00
18504;BME280;9381;54.244;10.074;2022-09-09T19:03:06;100559.81;;;17.80;100.00
18504;BME280;9381;54.244;10.074;2022-09-09T19:08:06;100569.09;;;17.79;100.00
18504;BME280;9381;54.244;10.074;2022-09-09T19:13:06;100574.53;;;17.69;100.00
18504;BME280;9381;54.244;10.074;2022-09-09T19:18:07;100574.69;;;17.47;100.00
18504;BME280;9381;54.244;10.074;2022-09-09T19:23:07;100569.78;;;17.49;100.00
18504;BME280;9381;54.244;10.074;2022-09-09T19:28:07;100573.91;;;17.52;100.00
18504;BME280;9381;54.244;10.074;2022-09-09T19:33:07;100571.16;;;17.57;100.00
18504;BME280;9381;54.244;10.074;2022-09-09T19:38:08;100577.19;;;17.54;100.00
18504;BME280;9381;54.244;10.074;2022-09-09T19:43:08;100568.38;;;17.47;100.00
18504;BME280;9381;54.244;10.074;2022-09-09T19:48:08;100559.09;;;17.43;100.00
18504;BME280;9381;54.244;10.074;2022-09-09T19:53:08;100559.88;;;17.43;100.00
18504;BME280;9381;54.244;10.074;2022-09-09T19:58:09;100549.81;;;17.49;100.00
18504;BME280;9381;54.244;10.074;2022-09-09T20:03:09;100557.94;;;17.39;100.00
18504;BME280;9381;54.244;10.074;2022-09-09T20:08:10;100550.31;;;17.41;100.00
18504;BME280;9381;54.244;10.074;2022-09-09T20:13:10;100553.56;;;17.38;100.00
18504;BME280;9381;54.244;10.074;2022-09-09T20:18:11;100551.03;;;17.31;100.00
18504;BME280;9381;54.244;10.074;2022-09-09T20:23:12;100545.22;;;17.18;100.00
18504;BME280;9381;54.244;10.074;2022-09-09T20:28:12;100548.44;;;17.10;100.00
18504;BME280;9381;54.244;10.074;2022-09-09T20:33:13;100553.06;;;17.04;100.00
18504;BME280;9381;54.244;10.074;2022-09-09T20:38:16;100552.75;;;17.01;100.00
18504;BME280;9381;54.244;10.074;2022-09-09T20:43:16;100554.06;;;16.93;100.00
18504;BME280;9381;54.244;10.074;2022-09-09T20:48:19;100563.66;;;16.96;100.00
18504;BME280;9381;54.244;10.074;2022-09-09T20:53:20;100567.78;;;16.98;100.00
18504;BME280;9381;54.244;10.074;2022-09-09T20:58:23;100566.94;;;16.98;100.00
18504;BME280;9381;54.244;10.074;2022-09-09T21:03:23;100564.22;;;16.98;100.00
18504;BME280;9381;54.244;10.074;2022-09-09T21:08:28;100562.53;;;16.92;100.00
18504;BME280;9381;54.244;10.074;2022-09-09T21:13:31;100560.16;;;17.05;100.00
18504;BME280;9381;54.244;10.074;2022-09-09T21:18:32;100552.75;;;16.96;100.00
18504;BME280;9381;54.244;10.074;2022-09-09T21:23:33;100554.31;;;16.87;100.00
18504;BME280;9381;54.244;10.074;2022-09-09T21:28:35;100548.31;;;16.90;100.00
18504;BME280;9381;54.244;10.074;2022-09-09T21:33:35;100565.22;;;16.87;100.00
18504;BME280;9381;54.244;10.074;2022-09-09T21:38:36;100577.50;;;16.84;100.00
18504;BME280;9381;54.244;10.074;2022-09-09T21:43:42;100565.47;;;16.80;100.00
18504;BME280;9381;54.244;10.074;2022-09-09T21:48:43;100568.19;;;16.80;100.00
18504;BME280;9381;54.244;10.074;2022-09-09T21:53:44;100573.59;;;16.75;100.00
18504;BME280;9381;54.244;10.074;2022-09-09T21:58:46;100568.97;;;16.76;100.00
18504;BME280;9381;54.244;10.074;2022-09-09T22:03:46;100585.88;;;16.73;100.00
18504;BME280;9381;54.244;10.074;2022-09-09T22:08:46;100584.09;;;16.57;100.00
18504;BME280;9381;54.244;10.074;2022-09-09T22:13:47;100577.47;;;16.48;100.00
18504;BME280;9381;54.244;10.074;2022-09-09T22:18:53;100588.88;;;16.45;100.00
18504;BME280;9381;54.244;10.074;2022-09-09T22:23:57;100588.88;;;16.45;100.00
18504;BME280;9381;54.244;10.074;2022-09-09T22:28:58;100588.94;;;16.50;100.00
18504;BME280;9381;54.244;10.074;2022-09-09T22:33:58;100593.84;;;16.48;100.00
18504;BME280;9381;54.244;10.074;2022-09-09T22:38:58;100593.00;;;16.47;100.00
18504;BME280;9381;54.244;10.074;2022-09-09T22:43:59;100601.97;;;16.43;100.00
18504;BME280;9381;54.244;10.074;2022-09-09T22:49:00;100595.63;;;16.37;100.00
18504;BME280;9381;54.244;10.074;2022-09-09T22:54:03;100598.03;;;16.34;100.00
18504;BME280;9381;54.244;10.074;2022-09-09T22:59:04;100598.03;;;16.34;100.00
18504;BME280;9381;54.244;10.074;2022-09-09T23:04:04;100595.53;;;16.32;100.00
18504;BME280;9381;54.244;10.074;2022-09-09T23:09:04;100596.91;;;16.30;100.00
18504;BME280;9381;54.244;10.074;2022-09-09T23:14:06;100590.28;;;16.26;100.00
18504;BME280;9381;54.244;10.074;2022-09-09T23:19:11;100591.88;;;16.22;100.00
18504;BME280;9381;54.244;10.074;2022-09-09T23:24:15;100604.13;;;16.19;100.00
18504;BME280;9381;54.244;10.074;2022-09-09T23:29:16;100606.03;;;16.19;100.00
18504;BME280;9381;54.244;10.074;2022-09-09T23:34:18;100585.84;;;16.20;100.00
18504;BME280;9381;54.244;10.074;2022-09-09T23:39:18;100591.25;;;16.15;100.00
18504;BME280;9381;54.244;10.074;2022-09-09T23:44:18;100582.50;;;16.13;100.00
18504;BME280;9381;54.244;10.074;2022-09-09T23:49:19;100580.91;;;16.17;100.00
18504;BME280;9381;54.244;10.074;2022-09-09T23:54:19;100567.22;;;16.12;100.00
18504;BME280;9381;54.244;10.074;2022-09-09T23:59:19;100571.00;;;16.11;100.00
